createdAt,value
2023-01-30T00:22:30.337Z,-2.48
2023-01-30T00:26:19.680Z,-2.43
2023-01-30T00:29:57.658Z,-2.39
2023-01-30T00:33:54.401Z,-2.37
2023-01-30T00:37:43.467Z,-2.38
2023-01-30T00:41:25.904Z,-2.37
2023-01-30T00:44:51.594Z,-2.32
2023-01-30T00:48:40.792Z,-2.28
2023-01-30T00:52:30.177Z,-2.24
2023-01-30T00:56:18.259Z,-2.15
2023-01-30T01:00:07.239Z,-2.14
2023-01-30T01:03:57.480Z,-2.19
2023-01-30T01:07:47.412Z,-2.23
2023-01-30T01:11:36.814Z,-2.26
2023-01-30T01:15:25.806Z,-2.31
2023-01-30T01:19:14.538Z,-2.36
2023-01-30T01:34:51.738Z,-2.89
2023-01-30T01:38:39.220Z,-3.01
2023-01-30T01:41:46.542Z,-3.12
2023-01-30T01:45:49.299Z,-3.22
2023-01-30T01:57:58.232Z,-3.52
2023-01-30T02:01:35.432Z,-3.55
2023-01-30T02:05:13.375Z,-3.58
2023-01-30T02:09:04.011Z,-3.60
2023-01-30T02:20:35.826Z,-3.63
2023-01-30T02:24:16.596Z,-3.67
2023-01-30T02:28:02.392Z,-3.69
2023-01-30T02:31:56.614Z,-3.71
2023-01-30T02:44:45.457Z,-3.68
2023-01-30T02:48:05.540Z,-3.65
2023-01-30T02:51:54.541Z,-3.61
2023-01-30T02:54:59.356Z,-3.60
2023-01-30T02:58:47.087Z,-3.60
2023-01-30T03:06:09.368Z,-3.54
2023-01-30T03:09:58.380Z,-3.47
2023-01-30T03:13:46.065Z,-3.37
2023-01-30T03:17:25.100Z,-3.27
2023-01-30T03:21:00.458Z,-3.16
2023-01-30T03:24:39.412Z,-3.06
2023-01-30T03:43:11.476Z,-2.62
2023-01-30T03:46:31.661Z,-2.53
2023-01-30T03:50:20.659Z,-2.42
2023-01-30T03:54:08.422Z,-2.34
2023-01-30T03:57:39.175Z,-2.28
2023-01-30T04:00:38.399Z,-2.25
2023-01-30T04:04:07.180Z,-2.23
2023-01-30T04:23:23.363Z,-2.03
2023-01-30T04:26:54.755Z,-1.99
2023-01-30T04:30:14.834Z,-1.95
2023-01-30T04:34:04.226Z,-1.92
2023-01-30T04:37:42.320Z,-1.92
2023-01-30T04:40:53.937Z,-1.91
2023-01-30T04:44:33.913Z,-1.90
2023-01-30T04:47:39.681Z,-1.85
2023-01-30T04:50:56.871Z,-1.81
2023-01-30T04:54:17.628Z,-1.80
2023-01-30T04:57:46.277Z,-1.81
2023-01-30T05:01:27.796Z,-1.82
2023-01-30T05:05:17.188Z,-1.84
2023-01-30T05:08:19.240Z,-1.87
2023-01-30T05:12:08.586Z,-1.88
2023-01-30T05:15:58.387Z,-1.86
2023-01-30T05:19:21.029Z,-1.82
2023-01-30T05:31:24.734Z,-1.75
2023-01-30T05:35:12.433Z,-1.73
2023-01-30T05:38:59.883Z,-1.70
2023-01-30T05:42:46.178Z,-1.67
2023-01-30T05:46:35.553Z,-1.63
2023-01-30T05:50:24.164Z,-1.61
2023-01-30T05:54:05.572Z,-1.58
2023-01-30T05:57:54.471Z,-1.58
2023-01-30T06:04:11.558Z,-1.58
2023-01-30T06:07:40.447Z,-1.57
2023-01-30T06:11:29.307Z,-1.55
2023-01-30T06:14:36.093Z,-1.53
2023-01-30T06:17:03.201Z,-1.52
2023-01-30T06:20:04.020Z,-1.52
2023-01-30T06:23:09.259Z,-1.49
2023-01-30T06:26:47.013Z,-1.43
2023-01-30T06:29:33.847Z,-1.37
2023-01-30T06:32:13.127Z,-1.33
2023-01-30T06:35:59.866Z,-1.30
2023-01-30T06:39:27.300Z,-1.27
2023-01-30T06:42:14.479Z,-1.28
2023-01-30T06:45:42.400Z,-1.28
2023-01-30T06:49:08.001Z,-1.31
2023-01-30T06:52:31.770Z,-1.33
2023-01-30T06:55:39.457Z,-1.31
2023-01-30T06:59:30.108Z,-1.29
2023-01-30T07:02:38.295Z,-1.24
2023-01-30T07:05:46.749Z,-1.19
2023-01-30T07:08:41.320Z,-1.13
2023-01-30T07:11:32.491Z,-1.10
2023-01-30T07:14:22.229Z,-1.06
2023-01-30T07:16:51.737Z,-1.05
2023-01-30T07:20:22.649Z,-1.03
2023-01-30T07:23:50.555Z,-1.02
2023-01-30T07:27:20.621Z,-0.99
2023-01-30T07:30:43.730Z,-0.97
2023-01-30T07:33:57.937Z,-1.01
2023-01-30T07:37:35.374Z,-1.02
2023-01-30T07:41:05.548Z,-0.99
2023-01-30T07:44:21.938Z,-1.00
2023-01-30T07:47:49.551Z,-1.01
2023-01-30T07:51:27.295Z,-1.03
2023-01-30T07:54:33.048Z,-1.07
2023-01-30T08:02:08.038Z,-1.16
2023-01-30T08:05:15.540Z,-1.16
2023-01-30T08:08:55.521Z,-1.14
2023-01-30T08:12:43.436Z,-1.10
2023-01-30T08:16:06.411Z,-1.07
2023-01-30T08:27:08.784Z,-0.83
2023-01-30T08:30:04.569Z,-0.72
2023-01-30T08:33:14.332Z,-0.61
2023-01-30T08:36:53.294Z,-0.49
2023-01-30T08:39:29.249Z,-0.43
2023-01-30T08:42:08.262Z,-0.42
2023-01-30T08:44:57.283Z,-0.43
2023-01-30T08:48:16.475Z,-0.43
2023-01-30T08:50:55.472Z,-0.38
2023-01-30T08:53:37.045Z,-0.34
2023-01-30T08:56:04.401Z,-0.29
2023-01-30T08:59:03.638Z,-0.25
2023-01-30T09:01:50.911Z,-0.19
2023-01-30T09:04:47.391Z,-0.15
2023-01-30T09:07:35.650Z,-0.13
2023-01-30T09:10:16.312Z,-0.13
2023-01-30T09:13:34.021Z,-0.13
2023-01-30T09:16:54.961Z,-0.09
2023-01-30T09:20:25.010Z,0.03
2023-01-30T09:23:48.663Z,0.17
2023-01-30T09:27:19.170Z,0.30
2023-01-30T09:30:47.384Z,0.42
2023-01-30T09:34:35.139Z,0.60
2023-01-30T09:38:22.832Z,0.79
2023-01-30T09:42:04.577Z,0.88
2023-01-30T09:45:51.163Z,0.87
2023-01-30T09:49:22.411Z,0.82
2023-01-30T09:52:50.771Z,0.76
2023-01-30T10:01:08.155Z,0.61
2023-01-30T10:04:28.112Z,0.57
2023-01-30T10:08:21.612Z,0.56
2023-01-30T10:23:57.452Z,0.64
2023-01-30T10:26:36.702Z,0.67
2023-01-30T10:30:11.954Z,0.70
2023-01-30T10:33:50.123Z,0.80
2023-01-30T10:37:55.147Z,0.85
2023-01-30T10:41:51.480Z,0.85
2023-01-30T10:54:00.777Z,0.53
2023-01-30T10:58:16.564Z,0.42
2023-01-30T11:10:27.180Z,0.21
2023-01-30T11:14:19.083Z,0.22
2023-01-30T11:22:15.075Z,0.31
2023-01-30T11:26:13.222Z,0.34
2023-01-30T11:41:00.107Z,0.47
2023-01-30T11:44:40.899Z,0.54
2023-01-30T11:48:33.178Z,0.58
2023-01-30T11:56:28.187Z,0.58
2023-01-30T12:00:08.720Z,0.60
2023-01-30T12:03:39.512Z,0.61
2023-01-30T12:07:31.393Z,0.62
2023-01-30T12:11:23.115Z,0.64
2023-01-30T12:15:20.212Z,0.67
2023-01-30T12:23:31.074Z,0.79
2023-01-30T12:27:24.418Z,0.87
2023-01-30T12:38:48.687Z,1.07
2023-01-30T12:42:43.176Z,1.15
2023-01-30T12:46:26.901Z,1.19
2023-01-30T12:50:33.414Z,1.23
2023-01-30T13:07:13.291Z,1.30
2023-01-30T13:11:02.791Z,1.30
2023-01-30T13:18:56.196Z,1.32
2023-01-30T13:23:03.424Z,1.33
2023-01-30T13:27:00.677Z,1.33
2023-01-30T13:46:19.440Z,1.25
2023-01-30T13:49:59.877Z,1.26
2023-01-30T13:53:54.487Z,1.26
2023-01-30T13:57:48.980Z,1.27
2023-01-30T14:13:30.111Z,1.33
2023-01-30T14:17:23.261Z,1.40
2023-01-30T14:21:12.363Z,1.45
2023-01-30T14:44:28.866Z,1.69
2023-01-30T14:48:10.533Z,1.70
2023-01-30T14:51:57.481Z,1.71
2023-01-30T14:55:46.622Z,1.72
2023-01-30T14:59:35.957Z,1.73
2023-01-30T15:15:19.310Z,1.86
2023-01-30T15:19:04.092Z,1.89
2023-01-30T15:23:01.976Z,1.93
2023-01-30T15:26:50.600Z,1.98
2023-01-30T15:34:23.187Z,2.05
2023-01-30T15:38:10.095Z,2.09
2023-01-30T15:41:59.603Z,2.09
2023-01-30T15:45:54.843Z,2.09
2023-01-30T15:57:08.502Z,2.06
2023-01-30T16:00:24.172Z,2.05
2023-01-30T16:03:47.731Z,2.05
2023-01-30T16:07:32.544Z,2.02
2023-01-30T16:23:22.248Z,2.06
2023-01-30T16:27:09.933Z,2.08
2023-01-30T16:31:03.323Z,2.09
2023-01-30T16:35:03.645Z,2.12
2023-01-30T16:47:22.925Z,2.24
2023-01-30T16:51:21.270Z,2.26
2023-01-30T16:55:18.300Z,2.30
2023-01-30T16:58:57.662Z,2.33
2023-01-30T17:02:45.139Z,2.33
2023-01-30T17:18:50.183Z,2.36
2023-01-30T17:22:30.685Z,2.37
2023-01-30T17:26:20.025Z,2.37
2023-01-30T17:30:09.132Z,2.33
2023-01-30T17:33:51.339Z,2.31
2023-01-30T17:37:40.445Z,2.27
2023-01-30T17:41:30.271Z,2.26
2023-01-30T17:45:21.853Z,2.26
2023-01-30T17:52:47.733Z,2.28
2023-01-30T17:56:38.331Z,2.28
2023-01-30T18:00:26.099Z,2.28
2023-01-30T18:04:15.270Z,2.29
2023-01-30T18:08:04.438Z,2.29
2023-01-30T18:11:55.449Z,2.29
2023-01-30T18:15:43.331Z,2.30
2023-01-30T18:19:22.941Z,2.29
2023-01-30T18:34:54.346Z,2.30
2023-01-30T18:38:43.417Z,2.29
2023-01-30T18:42:32.572Z,2.31
2023-01-30T18:46:21.764Z,2.33
2023-01-30T18:50:11.058Z,2.34
2023-01-30T18:53:59.852Z,2.33
2023-01-30T18:57:48.774Z,2.32
2023-01-30T19:41:55.169Z,2.47
2023-01-30T19:45:33.017Z,2.49
2023-01-30T19:49:23.334Z,2.50
2023-01-30T19:52:50.999Z,2.51
2023-01-30T19:56:38.578Z,2.50
2023-01-30T20:00:09.660Z,2.47
2023-01-30T20:03:59.475Z,2.41
2023-01-30T20:07:48.383Z,2.31
2023-01-30T20:19:58.490Z,2.04
2023-01-30T20:23:22.524Z,1.97
2023-01-30T20:27:10.242Z,1.89
2023-01-30T20:30:58.974Z,1.82
2023-01-30T20:34:46.996Z,1.77
2023-01-30T20:38:24.679Z,1.74
2023-01-30T20:49:55.744Z,1.79
2023-01-30T20:53:44.859Z,1.83
2023-01-30T20:57:36.492Z,1.86
2023-01-30T21:01:26.547Z,1.88
2023-01-30T21:05:15.763Z,1.88
2023-01-30T21:08:45.777Z,1.82
2023-01-30T21:12:25.157Z,1.75
2023-01-30T21:16:13.848Z,1.68
2023-01-30T21:31:43.660Z,1.60
2023-01-30T21:35:32.740Z,1.61
2023-01-30T21:39:20.289Z,1.63
2023-01-30T21:43:21.413Z,1.67
2023-01-30T21:47:10.412Z,1.72
2023-01-30T21:50:59.599Z,1.77
2023-01-30T21:54:48.786Z,1.85
2023-01-30T21:58:38.000Z,1.94
2023-01-30T22:02:07.800Z,2.01
2023-01-30T22:05:57.037Z,2.07
2023-01-30T22:09:47.410Z,2.12
2023-01-30T22:13:38.862Z,2.17
2023-01-30T22:17:48.151Z,2.19
2023-01-30T22:21:49.281Z,2.22
2023-01-30T22:25:38.537Z,2.24
2023-01-30T22:29:27.525Z,2.26
2023-01-30T22:33:15.915Z,2.26
2023-01-30T22:37:05.087Z,2.26
2023-01-30T22:40:54.357Z,2.24
2023-01-30T22:56:35.752Z,1.59
2023-01-30T23:00:24.942Z,1.47
2023-01-30T23:05:34.646Z,1.38
2023-01-30T23:08:25.760Z,1.29
2023-01-30T23:12:23.885Z,1.20
2023-01-30T23:15:34.543Z,1.14
2023-01-30T23:31:17.318Z,1.00
2023-01-30T23:35:06.646Z,1.00
2023-01-30T23:38:55.827Z,1.00
2023-01-30T23:46:59.604Z,1.02
2023-01-30T23:50:47.366Z,1.01
2023-01-30T23:54:35.183Z,1.02
